createdAt,value
2022-07-28T00:00:13.033Z,52.68
2022-07-28T00:01:19.858Z,52.70
2022-07-28T00:02:24.129Z,52.54
2022-07-28T00:03:28.052Z,52.80
2022-07-28T00:04:34.062Z,52.80
2022-07-28T00:05:38.281Z,52.88
2022-07-28T00:06:41.953Z,53.04
2022-07-28T00:07:46.061Z,53.25
2022-07-28T00:08:49.840Z,53.41
2022-07-28T00:09:59.834Z,53.57
2022-07-28T00:11:04.452Z,53.66
2022-07-28T00:12:09.308Z,53.93
2022-07-28T00:13:13.338Z,54.22
2022-07-28T00:14:17.284Z,54.11
2022-07-28T00:15:21.134Z,54.47
2022-07-28T00:16:25.361Z,54.40
2022-07-28T00:17:29.540Z,54.57
2022-07-28T00:18:33.525Z,54.68
2022-07-28T00:19:37.741Z,54.72
2022-07-28T00:20:41.650Z,54.91
2022-07-28T00:21:45.615Z,55.14
2022-07-28T00:22:49.497Z,55.78
2022-07-28T00:23:53.141Z,55.85
2022-07-28T00:24:57.123Z,56.05
2022-07-28T00:26:01.072Z,56.08
2022-07-28T00:27:06.951Z,56.39
2022-07-28T00:28:11.541Z,56.41
2022-07-28T00:29:15.326Z,56.48
2022-07-28T00:30:19.336Z,56.66
2022-07-28T00:31:23.223Z,56.71
2022-07-28T00:32:27.011Z,56.64
2022-07-28T00:33:31.524Z,56.60
2022-07-28T00:34:35.400Z,56.51
2022-07-28T00:35:40.838Z,56.56
2022-07-28T00:36:52.337Z,56.53
2022-07-28T00:37:56.223Z,56.52
2022-07-28T00:39:00.117Z,56.73
2022-07-28T00:40:04.917Z,56.66
2022-07-28T00:41:11.797Z,56.56
2022-07-28T00:42:22.130Z,56.20
2022-07-28T00:43:26.101Z,55.84
2022-07-28T00:44:30.065Z,55.47
2022-07-28T00:45:33.844Z,55.79
2022-07-28T00:46:38.112Z,55.43
2022-07-28T00:47:42.539Z,55.46
2022-07-28T00:48:55.731Z,55.39
2022-07-28T00:50:00.065Z,55.41
2022-07-28T00:51:04.087Z,55.38
2022-07-28T00:52:12.078Z,55.40
2022-07-28T00:53:16.082Z,55.40
2022-07-28T00:54:20.495Z,54.87
2022-07-28T00:55:25.393Z,55.19
2022-07-28T00:56:29.681Z,55.33
2022-07-28T00:57:34.855Z,55.27
2022-07-28T00:58:39.457Z,55.30
2022-07-28T00:59:43.597Z,55.42
2022-07-28T01:00:47.452Z,55.35
2022-07-28T01:01:53.342Z,55.40
2022-07-28T01:02:59.714Z,55.69
2022-07-28T01:04:04.823Z,55.57
2022-07-28T01:05:09.943Z,55.61
2022-07-28T01:06:34.587Z,55.82
2022-07-28T01:08:17.269Z,55.50
2022-07-28T01:09:59.509Z,55.33
2022-07-28T01:11:14.705Z,55.32
2022-07-28T01:13:02.835Z,55.35
2022-07-28T01:14:33.865Z,55.48
2022-07-28T01:15:45.579Z,55.25
2022-07-28T01:17:20.293Z,55.38
2022-07-28T01:18:49.047Z,55.45
2022-07-28T01:20:22.749Z,55.76
2022-07-28T01:21:34.165Z,55.99
2022-07-28T01:22:53.413Z,55.79
2022-07-28T01:24:21.020Z,56.04
2022-07-28T01:25:48.961Z,56.11
2022-07-28T01:27:04.367Z,55.86
2022-07-28T01:29:01.876Z,55.94
2022-07-28T01:30:29.357Z,55.86
2022-07-28T01:31:49.032Z,55.80
2022-07-28T01:33:27.854Z,55.94
2022-07-28T01:34:41.733Z,55.92
2022-07-28T01:36:19.271Z,56.08
2022-07-28T01:37:29.865Z,56.04
2022-07-28T01:38:37.338Z,56.21
2022-07-28T01:39:45.354Z,55.84
2022-07-28T01:40:53.781Z,56.09
2022-07-28T01:42:01.657Z,56.01
2022-07-28T01:43:13.458Z,55.91
2022-07-28T01:44:25.293Z,55.80
2022-07-28T01:45:32.882Z,55.67
2022-07-28T01:46:39.754Z,55.88
2022-07-28T01:47:50.176Z,55.67
2022-07-28T01:48:58.898Z,55.09
2022-07-28T01:50:08.705Z,55.30
2022-07-28T01:51:15.918Z,54.86
2022-07-28T01:52:22.656Z,55.00
2022-07-28T01:53:28.320Z,55.47
2022-07-28T01:54:34.499Z,56.04
2022-07-28T01:55:42.903Z,56.29
2022-07-28T01:56:50.258Z,56.26
2022-07-28T01:57:57.242Z,56.74
2022-07-28T01:59:09.931Z,56.76
2022-07-28T02:00:15.179Z,57.41
2022-07-28T02:01:21.588Z,57.61
2022-07-28T02:02:28.091Z,57.47
2022-07-28T02:03:34.772Z,57.42
2022-07-28T02:04:43.368Z,57.49
2022-07-28T02:05:51.885Z,57.79
2022-07-28T02:06:57.822Z,57.54
2022-07-28T02:08:04.187Z,57.58
2022-07-28T02:09:11.650Z,57.97
2022-07-28T02:10:18.851Z,57.73
2022-07-28T02:11:40.840Z,57.94
2022-07-28T02:12:48.292Z,58.11
2022-07-28T02:13:55.780Z,58.18
2022-07-28T02:15:01.153Z,58.08
2022-07-28T02:16:10.823Z,57.99
2022-07-28T02:17:25.626Z,57.92
2022-07-28T02:18:32.506Z,57.69
2022-07-28T02:19:39.881Z,58.00
2022-07-28T02:20:43.955Z,58.00
2022-07-28T02:21:51.526Z,58.02
2022-07-28T02:22:58.233Z,57.93
2022-07-28T02:24:02.171Z,57.84
2022-07-28T02:25:07.607Z,57.64
2022-07-28T02:26:15.552Z,57.29
2022-07-28T02:27:37.311Z,57.43
2022-07-28T02:28:47.004Z,57.18
2022-07-28T02:30:18.654Z,57.11
2022-07-28T02:31:39.941Z,57.31
2022-07-28T02:33:01.703Z,56.98
2022-07-28T02:34:08.857Z,57.06
2022-07-28T02:35:27.940Z,57.05
2022-07-28T02:36:41.977Z,57.17
2022-07-28T02:37:59.373Z,57.39
2022-07-28T02:39:15.965Z,57.25
2022-07-28T02:40:23.657Z,57.46
2022-07-28T02:41:32.592Z,57.71
2022-07-28T02:42:40.068Z,57.69
2022-07-28T02:43:52.885Z,57.83
2022-07-28T02:45:01.898Z,57.60
2022-07-28T02:46:14.161Z,57.72
2022-07-28T02:47:25.869Z,57.58
2022-07-28T02:48:33.573Z,57.72
2022-07-28T02:49:42.295Z,57.64
2022-07-28T02:50:48.760Z,57.76
2022-07-28T02:51:55.600Z,57.68
2022-07-28T02:53:15.215Z,57.84
2022-07-28T02:54:22.001Z,57.89
2022-07-28T02:55:28.265Z,57.80
2022-07-28T02:56:33.885Z,58.06
2022-07-28T02:57:41.698Z,58.01
2022-07-28T02:58:47.680Z,57.90
2022-07-28T02:59:53.601Z,58.04
2022-07-28T03:00:58.638Z,58.22
2022-07-28T03:02:04.460Z,58.24
2022-07-28T03:03:11.022Z,58.26
2022-07-28T03:04:18.284Z,58.22
2022-07-28T03:05:22.998Z,58.21
2022-07-28T03:06:28.832Z,58.34
2022-07-28T03:07:36.308Z,58.55
2022-07-28T03:08:54.477Z,58.42
2022-07-28T03:10:00.628Z,58.36
2022-07-28T03:11:13.598Z,58.62
2022-07-28T03:12:17.526Z,58.21
2022-07-28T03:13:22.033Z,58.43
2022-07-28T03:14:26.118Z,58.15
2022-07-28T03:15:31.249Z,57.98
2022-07-28T03:16:35.158Z,57.96
2022-07-28T03:17:39.423Z,57.68
2022-07-28T03:18:43.196Z,57.83
2022-07-28T03:19:47.122Z,57.63
2022-07-28T03:20:50.968Z,57.56
2022-07-28T03:21:54.972Z,57.49
2022-07-28T03:22:59.667Z,57.69
2022-07-28T03:24:04.295Z,57.53
2022-07-28T03:25:26.734Z,57.61
2022-07-28T03:27:12.586Z,57.38
2022-07-28T03:28:21.592Z,57.37
2022-07-28T03:29:28.444Z,57.13
2022-07-28T03:30:48.831Z,57.32
2022-07-28T03:31:55.627Z,57.19
2022-07-28T03:33:03.419Z,57.07
2022-07-28T03:34:07.854Z,57.00
2022-07-28T03:35:14.521Z,56.95
2022-07-28T03:36:30.125Z,57.04
2022-07-28T03:37:49.213Z,56.96
2022-07-28T03:39:02.445Z,57.11
2022-07-28T03:40:14.368Z,57.14
2022-07-28T03:41:21.820Z,57.12
2022-07-28T03:42:28.989Z,56.95
2022-07-28T03:43:35.330Z,56.80
2022-07-28T03:44:40.454Z,56.95
2022-07-28T03:45:46.620Z,56.90
2022-07-28T03:46:50.979Z,56.96
2022-07-28T03:47:58.723Z,57.12
2022-07-28T03:49:02.580Z,56.95
2022-07-28T03:50:07.101Z,56.92
2022-07-28T03:51:10.990Z,56.79
2022-07-28T03:52:15.950Z,57.04
2022-07-28T03:53:29.696Z,57.18
2022-07-28T03:54:33.620Z,57.13
2022-07-28T03:55:37.357Z,57.27
2022-07-28T03:56:41.120Z,57.10
2022-07-28T03:57:45.403Z,57.25
2022-07-28T03:58:49.147Z,57.25
2022-07-28T03:59:53.160Z,56.91
2022-07-28T04:00:58.056Z,56.83
2022-07-28T04:02:01.958Z,56.78
2022-07-28T04:03:06.134Z,56.93
2022-07-28T04:04:30.866Z,56.96
2022-07-28T04:05:34.799Z,56.55
2022-07-28T04:06:39.284Z,56.66
2022-07-28T04:07:44.144Z,56.57
2022-07-28T04:08:48.154Z,56.56
2022-07-28T04:09:52.049Z,56.69
2022-07-28T04:10:55.990Z,56.84
2022-07-28T04:12:00.152Z,56.67
2022-07-28T04:13:05.244Z,56.78
2022-07-28T04:14:14.683Z,57.05
2022-07-28T04:15:21.282Z,56.86
2022-07-28T04:16:26.436Z,56.86
2022-07-28T04:17:30.870Z,56.49
2022-07-28T04:18:35.775Z,56.67
2022-07-28T04:19:39.635Z,56.55
2022-07-28T04:20:43.385Z,56.26
2022-07-28T04:21:47.328Z,56.17
2022-07-28T04:22:53.336Z,56.11
2022-07-28T04:24:01.677Z,55.84
2022-07-28T04:25:07.624Z,55.83
2022-07-28T04:26:11.562Z,56.01
2022-07-28T04:27:17.283Z,55.65
2022-07-28T04:28:21.179Z,56.35
2022-07-28T04:29:27.475Z,56.09
2022-07-28T04:30:31.585Z,56.09
2022-07-28T04:31:35.396Z,56.23
2022-07-28T04:32:42.513Z,56.35
2022-07-28T04:33:47.012Z,56.18
2022-07-28T04:34:50.659Z,55.94
2022-07-28T04:35:54.627Z,55.73
2022-07-28T04:36:58.654Z,55.88
2022-07-28T04:38:03.381Z,55.76
2022-07-28T04:39:07.255Z,55.52
2022-07-28T04:40:13.939Z,55.45
2022-07-28T04:41:17.858Z,55.40
2022-07-28T04:42:21.602Z,55.31
2022-07-28T04:43:25.432Z,55.54
2022-07-28T04:44:29.305Z,55.51
2022-07-28T04:45:33.754Z,55.58
2022-07-28T04:46:37.837Z,55.69
2022-07-28T04:47:42.307Z,55.64
2022-07-28T04:48:46.072Z,55.51
2022-07-28T04:49:50.010Z,55.58
2022-07-28T04:50:53.945Z,55.35
2022-07-28T04:51:57.678Z,55.39
2022-07-28T04:53:01.558Z,55.85
2022-07-28T04:54:05.412Z,55.88
2022-07-28T04:55:09.660Z,55.98
2022-07-28T04:56:13.526Z,55.99
2022-07-28T04:57:17.425Z,55.86
2022-07-28T04:58:23.117Z,55.70
2022-07-28T04:59:27.519Z,55.29
2022-07-28T05:00:32.189Z,55.77
2022-07-28T05:01:39.254Z,55.69
2022-07-28T05:02:45.770Z,55.54
2022-07-28T05:03:49.655Z,55.58
2022-07-28T05:04:54.309Z,55.37
2022-07-28T05:05:58.883Z,55.40
2022-07-28T05:07:07.969Z,55.00
2022-07-28T05:08:16.578Z,54.80
2022-07-28T05:09:20.385Z,54.91
2022-07-28T05:10:24.320Z,54.81
2022-07-28T05:11:28.373Z,54.61
2022-07-28T05:12:32.493Z,54.68
2022-07-28T05:13:36.261Z,54.36
2022-07-28T05:14:40.215Z,54.35
2022-07-28T05:15:44.064Z,54.48
2022-07-28T05:16:47.810Z,54.50
2022-07-28T05:17:52.140Z,54.41
2022-07-28T05:18:55.983Z,54.46
2022-07-28T05:19:59.748Z,54.53
2022-07-28T05:21:03.762Z,54.39
2022-07-28T05:22:07.655Z,54.40
2022-07-28T05:23:12.993Z,54.50
2022-07-28T05:24:17.109Z,54.56
2022-07-28T05:25:23.858Z,54.42
2022-07-28T05:26:28.805Z,54.63
2022-07-28T05:27:32.675Z,54.34
2022-07-28T05:28:36.695Z,54.52
2022-07-28T05:29:47.191Z,54.25
2022-07-28T05:30:51.737Z,54.09
2022-07-28T05:31:55.760Z,54.17
2022-07-28T05:33:02.026Z,53.94
2022-07-28T05:34:06.396Z,53.91
2022-07-28T05:35:10.738Z,54.25
2022-07-28T05:36:14.647Z,54.14
2022-07-28T05:37:18.669Z,54.30
2022-07-28T05:38:22.634Z,54.44
2022-07-28T05:39:26.317Z,54.58
2022-07-28T05:40:30.290Z,54.48
2022-07-28T05:41:34.106Z,54.67
2022-07-28T05:42:38.104Z,54.76
2022-07-28T05:43:42.417Z,54.68
2022-07-28T05:44:46.129Z,54.75
2022-07-28T05:45:50.491Z,54.80
2022-07-28T05:46:54.367Z,54.73
2022-07-28T05:47:58.214Z,54.66
2022-07-28T05:49:03.504Z,54.56
2022-07-28T05:50:07.857Z,54.72
2022-07-28T05:51:11.836Z,54.55
2022-07-28T05:52:15.584Z,54.38
2022-07-28T05:53:19.778Z,54.36
2022-07-28T05:54:23.577Z,54.66
2022-07-28T05:55:28.866Z,54.35
2022-07-28T05:56:32.608Z,54.50
2022-07-28T05:57:38.892Z,54.36
2022-07-28T05:58:42.726Z,54.69
2022-07-28T05:59:46.450Z,54.58
2022-07-28T06:00:51.323Z,54.60
2022-07-28T06:01:55.314Z,54.52
2022-07-28T06:03:02.865Z,54.64
2022-07-28T06:04:26.493Z,54.61
2022-07-28T06:05:32.917Z,54.38
2022-07-28T06:06:36.681Z,54.34
2022-07-28T06:07:43.838Z,54.38
2022-07-28T06:08:48.417Z,54.35
2022-07-28T06:09:52.145Z,53.87
2022-07-28T06:11:02.648Z,53.79
2022-07-28T06:12:08.103Z,53.21
2022-07-28T06:13:15.867Z,53.49
2022-07-28T06:14:19.638Z,53.41
2022-07-28T06:15:27.084Z,53.63
2022-07-28T06:16:30.946Z,53.63
2022-07-28T06:17:34.707Z,53.90
2022-07-28T06:18:38.526Z,53.59
2022-07-28T06:19:44.083Z,53.49
2022-07-28T06:20:49.099Z,53.28
2022-07-28T06:21:53.389Z,53.65
2022-07-28T06:22:57.336Z,53.60
2022-07-28T06:24:01.586Z,53.67
2022-07-28T06:25:05.869Z,53.52
2022-07-28T06:26:09.610Z,53.51
2022-07-28T06:27:13.826Z,53.43
2022-07-28T06:28:19.115Z,53.46
2022-07-28T06:29:24.644Z,53.55
2022-07-28T06:30:28.903Z,53.58
2022-07-28T06:31:32.878Z,53.06
2022-07-28T06:32:37.824Z,53.17
2022-07-28T06:33:41.846Z,53.33
2022-07-28T06:34:45.545Z,53.61
2022-07-28T06:35:51.236Z,53.37
2022-07-28T06:36:55.474Z,53.10
2022-07-28T06:37:59.603Z,52.55
2022-07-28T06:39:03.632Z,51.96
2022-07-28T06:40:10.043Z,51.76
2022-07-28T06:41:14.153Z,51.63
2022-07-28T06:42:18.418Z,51.68
2022-07-28T06:43:22.227Z,51.57
2022-07-28T06:44:42.517Z,51.63
2022-07-28T06:45:52.453Z,51.54
2022-07-28T06:46:58.514Z,51.64
2022-07-28T06:48:02.401Z,51.14
2022-07-28T06:49:06.537Z,51.39
2022-07-28T06:50:24.875Z,51.34
2022-07-28T06:51:31.231Z,51.08
2022-07-28T06:52:35.799Z,51.12
2022-07-28T06:53:40.339Z,51.02
2022-07-28T06:54:48.565Z,50.86
2022-07-28T06:55:52.710Z,50.84
2022-07-28T06:56:56.362Z,50.70
2022-07-28T06:58:01.338Z,50.19
2022-07-28T06:59:05.289Z,49.90
2022-07-28T07:00:12.535Z,49.54
2022-07-28T07:01:17.071Z,49.36
2022-07-28T07:02:26.307Z,48.92
2022-07-28T07:03:32.249Z,48.49
2022-07-28T07:04:36.614Z,48.21
2022-07-28T07:05:41.074Z,47.73
2022-07-28T07:06:45.041Z,47.44
2022-07-28T07:07:48.792Z,47.00
2022-07-28T07:08:52.585Z,45.92
2022-07-28T07:09:56.501Z,45.39
2022-07-28T07:11:01.147Z,44.53
2022-07-28T07:12:05.582Z,43.89
2022-07-28T07:13:09.424Z,43.31
2022-07-28T07:14:18.591Z,42.29
2022-07-28T07:15:22.556Z,41.29
2022-07-28T07:16:26.467Z,40.86
2022-07-28T07:17:30.452Z,39.83
2022-07-28T07:18:34.377Z,39.74
2022-07-28T07:19:38.173Z,38.32
2022-07-28T07:20:42.244Z,37.41
2022-07-28T07:21:47.473Z,36.77
2022-07-28T07:22:51.205Z,35.54
2022-07-28T07:23:55.834Z,34.50
2022-07-28T07:25:09.629Z,34.70
2022-07-28T07:26:13.829Z,34.05
2022-07-28T07:27:17.835Z,33.07
2022-07-28T07:28:21.647Z,32.77
2022-07-28T07:29:25.962Z,32.67
2022-07-28T07:30:35.014Z,32.03
2022-07-28T07:31:40.480Z,31.59
2022-07-28T07:32:44.924Z,31.06
2022-07-28T07:33:49.017Z,30.70
2022-07-28T07:34:53.327Z,30.32
2022-07-28T07:35:57.454Z,30.12
2022-07-28T07:37:01.413Z,29.89
2022-07-28T07:38:05.829Z,30.01
2022-07-28T07:39:10.126Z,29.92
2022-07-28T07:40:14.059Z,29.62
2022-07-28T07:41:18.998Z,29.15
2022-07-28T07:42:24.623Z,29.60
2022-07-28T07:43:28.860Z,29.14
2022-07-28T07:44:32.830Z,28.90
2022-07-28T07:45:37.012Z,29.40
2022-07-28T07:46:40.989Z,29.01
2022-07-28T07:47:44.846Z,29.10
2022-07-28T07:48:48.745Z,28.07
2022-07-28T07:49:52.690Z,28.29
2022-07-28T07:50:56.696Z,28.02
2022-07-28T07:52:00.513Z,27.86
2022-07-28T07:53:05.001Z,27.38
2022-07-28T07:54:09.935Z,27.05
2022-07-28T07:55:14.111Z,26.89
2022-07-28T07:56:18.734Z,26.64
2022-07-28T07:57:22.732Z,26.37
2022-07-28T07:58:27.034Z,25.84
2022-07-28T07:59:31.169Z,26.17
2022-07-28T08:00:35.286Z,26.00
2022-07-28T08:01:40.612Z,25.71
2022-07-28T08:02:44.672Z,25.59
2022-07-28T08:03:50.366Z,25.42
2022-07-28T08:04:56.966Z,24.92
2022-07-28T08:06:00.986Z,24.41
2022-07-28T08:07:05.000Z,24.39
2022-07-28T08:08:10.179Z,24.24
2022-07-28T08:09:14.450Z,23.80
2022-07-28T08:10:18.161Z,23.47
2022-07-28T08:11:22.250Z,23.59
2022-07-28T08:12:25.999Z,23.64
2022-07-28T08:13:29.923Z,23.51
2022-07-28T08:14:33.813Z,23.79
2022-07-28T08:15:37.704Z,23.41
2022-07-28T08:16:41.815Z,23.95
2022-07-28T08:17:45.978Z,24.15
2022-07-28T08:18:50.530Z,23.95
2022-07-28T08:19:55.781Z,23.67
2022-07-28T08:20:59.702Z,23.66
2022-07-28T08:22:03.674Z,23.74
2022-07-28T08:23:07.442Z,23.36
2022-07-28T08:24:12.004Z,23.48
2022-07-28T08:25:22.605Z,23.73
2022-07-28T08:26:28.994Z,23.29
2022-07-28T08:27:32.701Z,23.26
2022-07-28T08:28:36.670Z,23.11
2022-07-28T08:29:40.566Z,23.40
2022-07-28T08:30:44.463Z,23.49
2022-07-28T08:31:48.448Z,23.55
2022-07-28T08:32:57.017Z,22.85
2022-07-28T08:34:01.999Z,23.14
2022-07-28T08:35:31.918Z,22.97
2022-07-28T08:36:32.405Z,22.77
2022-07-28T08:37:36.783Z,22.41
2022-07-28T08:38:40.513Z,22.60
2022-07-28T08:39:44.271Z,22.17
2022-07-28T08:40:52.038Z,22.33
2022-07-28T08:42:05.684Z,22.49
2022-07-28T08:43:27.261Z,22.11
2022-07-28T08:44:53.819Z,22.25
2022-07-28T08:46:04.958Z,21.88
2022-07-28T08:47:15.195Z,22.05
2022-07-28T08:48:21.931Z,21.82
2022-07-28T08:49:26.895Z,21.88
2022-07-28T08:50:32.822Z,22.03
2022-07-28T08:51:38.800Z,22.00
2022-07-28T08:52:50.892Z,22.03
2022-07-28T08:53:56.073Z,22.16
2022-07-28T08:55:05.209Z,21.68
2022-07-28T08:56:16.510Z,20.84
2022-07-28T08:57:31.041Z,21.67
2022-07-28T08:58:38.266Z,21.37
2022-07-28T08:59:42.952Z,21.59
2022-07-28T09:00:47.764Z,21.03
2022-07-28T09:01:57.442Z,20.61
2022-07-28T09:03:04.334Z,20.84
2022-07-28T09:04:09.793Z,20.74
2022-07-28T09:05:14.901Z,20.39
2022-07-28T09:06:22.038Z,20.32
2022-07-28T09:07:28.447Z,20.28
2022-07-28T09:08:32.728Z,21.03
2022-07-28T09:09:38.412Z,20.91
2022-07-28T09:10:42.961Z,20.96
2022-07-28T09:11:47.081Z,21.54
2022-07-28T09:12:51.878Z,21.00
2022-07-28T09:13:55.851Z,21.15
2022-07-28T09:15:03.030Z,21.67
2022-07-28T09:16:07.885Z,21.84
2022-07-28T09:17:12.063Z,22.37
2022-07-28T09:18:18.809Z,22.35
2022-07-28T09:19:23.128Z,22.94
2022-07-28T09:20:29.655Z,23.39
2022-07-28T09:21:34.442Z,24.03
2022-07-28T09:23:02.762Z,24.48
2022-07-28T09:24:07.444Z,24.95
2022-07-28T09:25:19.449Z,25.36
2022-07-28T09:26:23.481Z,26.02
2022-07-28T09:27:27.371Z,26.27
2022-07-28T09:28:31.328Z,26.56
2022-07-28T09:29:37.605Z,27.18
2022-07-28T09:30:53.887Z,27.19
2022-07-28T09:31:58.792Z,28.07
2022-07-28T09:33:42.529Z,28.01
2022-07-28T09:34:47.180Z,28.04
2022-07-28T09:35:59.179Z,28.42
2022-07-28T09:37:03.150Z,28.90
2022-07-28T09:38:07.432Z,28.60
2022-07-28T09:39:11.861Z,28.77
2022-07-28T09:40:16.713Z,29.60
2022-07-28T09:41:23.918Z,29.51
2022-07-28T09:42:48.152Z,29.58
2022-07-28T09:43:55.329Z,29.67
2022-07-28T09:45:25.241Z,30.49
2022-07-28T09:46:30.717Z,30.48
2022-07-28T09:47:35.503Z,30.67
2022-07-28T09:49:00.685Z,31.03
2022-07-28T09:50:05.697Z,31.37
2022-07-28T09:51:14.038Z,31.45
2022-07-28T09:52:39.193Z,31.25
2022-07-28T09:53:44.210Z,31.27
2022-07-28T09:55:05.164Z,31.49
2022-07-28T09:56:10.698Z,31.86
2022-07-28T09:57:31.673Z,32.26
2022-07-28T09:58:38.626Z,31.99
2022-07-28T09:59:45.422Z,33.06
2022-07-28T10:01:21.205Z,33.07
2022-07-28T10:02:34.118Z,33.39
2022-07-28T10:03:45.918Z,34.04
2022-07-28T10:04:55.793Z,33.91
2022-07-28T10:06:05.192Z,33.16
2022-07-28T10:07:16.093Z,33.71
2022-07-28T10:08:20.383Z,33.55
2022-07-28T10:09:27.379Z,33.90
2022-07-28T10:10:31.368Z,33.79
2022-07-28T10:11:39.449Z,33.57
2022-07-28T10:12:45.677Z,33.63
2022-07-28T10:13:55.644Z,33.84
2022-07-28T10:15:34.163Z,34.01
2022-07-28T10:16:47.079Z,34.52
2022-07-28T10:17:51.176Z,34.71
2022-07-28T10:18:57.015Z,34.99
2022-07-28T10:20:05.546Z,35.32
2022-07-28T10:21:16.153Z,35.35
2022-07-28T10:22:23.813Z,35.21
2022-07-28T10:23:28.047Z,35.19
2022-07-28T10:24:39.230Z,35.47
2022-07-28T10:25:45.614Z,35.11
2022-07-28T10:26:52.795Z,35.33
2022-07-28T10:28:00.952Z,36.08
2022-07-28T10:29:09.724Z,35.79
2022-07-28T10:30:14.814Z,36.30
2022-07-28T10:31:39.110Z,36.58
2022-07-28T10:32:45.538Z,36.25
2022-07-28T10:33:55.771Z,36.06
2022-07-28T10:35:14.171Z,36.77
2022-07-28T10:36:25.247Z,36.79
2022-07-28T10:37:31.911Z,36.72
2022-07-28T10:38:37.471Z,37.03
2022-07-28T10:40:09.428Z,36.94
2022-07-28T10:41:16.726Z,36.63
2022-07-28T10:42:21.149Z,36.39
2022-07-28T10:43:30.716Z,37.04
2022-07-28T10:44:35.033Z,37.14
2022-07-28T10:46:04.629Z,37.42
2022-07-28T10:47:18.226Z,37.16
2022-07-28T10:48:24.088Z,37.88
2022-07-28T10:49:32.792Z,38.32
2022-07-28T10:50:39.023Z,38.13
2022-07-28T10:52:05.023Z,38.54
2022-07-28T10:53:20.884Z,38.12
2022-07-28T10:54:30.085Z,38.00
2022-07-28T10:55:33.914Z,38.23
2022-07-28T10:57:00.251Z,38.51
2022-07-28T10:58:25.155Z,38.24
2022-07-28T11:00:24.717Z,38.42
2022-07-28T11:01:49.012Z,38.63
2022-07-28T11:03:01.076Z,38.50
2022-07-28T11:04:06.537Z,38.67
2022-07-28T11:05:31.274Z,38.59
2022-07-28T11:06:46.191Z,38.84
2022-07-28T11:07:50.967Z,38.77
2022-07-28T11:08:59.524Z,39.04
2022-07-28T11:10:18.405Z,39.01
2022-07-28T11:11:52.173Z,39.01
2022-07-28T11:12:59.660Z,38.92
2022-07-28T11:14:30.439Z,38.74
2022-07-28T11:15:38.461Z,38.62
2022-07-28T11:16:42.954Z,38.72
2022-07-28T11:18:10.804Z,38.51
2022-07-28T11:19:40.395Z,39.00
2022-07-28T11:21:03.901Z,38.83
2022-07-28T11:22:22.270Z,39.06
2022-07-28T11:23:46.527Z,39.21
2022-07-28T11:25:18.521Z,39.60
2022-07-28T11:26:25.189Z,39.10
2022-07-28T11:27:45.392Z,39.70
2022-07-28T11:29:12.504Z,39.95
2022-07-28T11:30:19.662Z,40.30
2022-07-28T11:31:44.614Z,40.06
2022-07-28T11:32:51.737Z,40.11
2022-07-28T11:33:56.833Z,39.83
2022-07-28T11:35:24.129Z,40.13
2022-07-28T11:37:07.079Z,39.64
2022-07-28T11:38:13.966Z,39.88
2022-07-28T11:39:26.602Z,39.86
2022-07-28T11:40:50.368Z,40.08
2022-07-28T11:41:54.613Z,40.10
2022-07-28T11:43:29.967Z,40.25
2022-07-28T11:44:41.170Z,40.14
2022-07-28T11:45:52.711Z,39.93
2022-07-28T11:47:20.844Z,40.31
2022-07-28T11:48:26.617Z,40.21
2022-07-28T11:49:30.778Z,40.16
2022-07-28T11:50:35.061Z,40.98
2022-07-28T11:51:51.452Z,41.02
2022-07-28T11:53:00.281Z,40.55
2022-07-28T11:54:04.353Z,40.96
2022-07-28T11:55:09.099Z,40.85
2022-07-28T11:56:17.003Z,40.30
2022-07-28T11:57:24.553Z,40.46
2022-07-28T11:58:29.516Z,40.46
2022-07-28T11:59:55.821Z,40.29
2022-07-28T12:01:17.771Z,39.80
2022-07-28T12:02:29.464Z,39.84
2022-07-28T12:03:49.005Z,39.42
2022-07-28T12:05:10.447Z,39.83
2022-07-28T12:06:15.926Z,40.23
2022-07-28T12:07:39.613Z,40.32
2022-07-28T12:09:09.583Z,40.50
2022-07-28T12:10:53.816Z,40.57
2022-07-28T12:11:58.802Z,39.93
2022-07-28T12:13:08.114Z,40.18
2022-07-28T12:14:16.347Z,40.41
2022-07-28T12:15:21.367Z,40.24
2022-07-28T12:16:29.344Z,40.29
2022-07-28T12:17:34.291Z,40.37
2022-07-28T12:18:39.088Z,40.19
2022-07-28T12:19:46.771Z,40.07
2022-07-28T12:20:53.013Z,39.92
2022-07-28T12:21:57.410Z,40.20
2022-07-28T12:23:07.686Z,39.82
2022-07-28T12:24:18.700Z,40.59
2022-07-28T12:25:24.002Z,39.89
2022-07-28T12:26:40.600Z,40.31
2022-07-28T12:27:45.837Z,40.71
2022-07-28T12:28:51.414Z,40.65
2022-07-28T12:30:02.905Z,40.63
2022-07-28T12:31:15.296Z,40.62
2022-07-28T12:32:20.361Z,40.52
2022-07-28T12:33:29.774Z,40.61
2022-07-28T12:34:35.512Z,40.58
2022-07-28T12:35:39.706Z,40.33
2022-07-28T12:36:44.031Z,40.23
2022-07-28T12:37:51.741Z,40.34
2022-07-28T12:38:56.551Z,40.50
2022-07-28T12:40:02.958Z,40.53
2022-07-28T12:41:17.924Z,40.46
2022-07-28T12:42:22.307Z,40.19
2022-07-28T12:43:31.233Z,40.18
2022-07-28T12:44:51.499Z,40.19
2022-07-28T12:45:56.019Z,40.15
2022-07-28T12:47:00.797Z,40.36
2022-07-28T12:48:08.845Z,40.23
2022-07-28T12:49:22.180Z,40.02
2022-07-28T12:50:26.276Z,39.94
2022-07-28T12:51:45.629Z,40.19
2022-07-28T12:53:10.974Z,39.91
2022-07-28T12:54:15.592Z,39.88
2022-07-28T12:55:33.355Z,39.83
2022-07-28T12:56:52.515Z,40.25
2022-07-28T12:57:57.306Z,39.67
2022-07-28T12:59:10.671Z,40.31
2022-07-28T13:00:15.635Z,40.11
2022-07-28T13:01:19.503Z,40.05
2022-07-28T13:02:37.728Z,39.90
2022-07-28T13:03:51.975Z,39.29
2022-07-28T13:04:57.907Z,39.72
2022-07-28T13:06:11.291Z,39.68
2022-07-28T13:07:25.898Z,39.73
2022-07-28T13:08:45.685Z,39.35
2022-07-28T13:10:12.401Z,39.40
2022-07-28T13:11:42.533Z,39.92
2022-07-28T13:12:41.506Z,39.72
2022-07-28T13:13:56.733Z,39.70
2022-07-28T13:15:14.709Z,39.78
2022-07-28T13:16:25.644Z,39.75
2022-07-28T13:17:49.522Z,39.32
2022-07-28T13:18:57.610Z,39.48
2022-07-28T13:20:13.378Z,38.66
2022-07-28T13:21:38.247Z,38.98
2022-07-28T13:22:45.766Z,39.48
2022-07-28T13:23:49.658Z,39.18
2022-07-28T13:24:54.257Z,39.14
2022-07-28T13:25:58.205Z,39.42
2022-07-28T13:27:03.484Z,39.68
2022-07-28T13:28:25.679Z,39.44
2022-07-28T13:29:34.620Z,39.20
2022-07-28T13:30:38.434Z,39.76
2022-07-28T13:31:42.302Z,40.01
2022-07-28T13:32:46.418Z,40.08
2022-07-28T13:33:50.242Z,39.68
2022-07-28T13:34:54.168Z,40.13
2022-07-28T13:35:59.134Z,40.15
2022-07-28T13:37:03.052Z,39.97
2022-07-28T13:38:07.019Z,39.97
2022-07-28T13:39:11.053Z,40.01
2022-07-28T13:40:15.139Z,39.36
2022-07-28T13:41:19.620Z,39.48
2022-07-28T13:42:23.969Z,39.73
2022-07-28T13:43:35.994Z,39.54
2022-07-28T13:44:40.072Z,39.44
2022-07-28T13:45:44.132Z,39.09
2022-07-28T13:46:50.068Z,39.25
2022-07-28T13:47:54.048Z,39.30
2022-07-28T13:49:00.022Z,39.02
2022-07-28T13:50:04.786Z,39.28
2022-07-28T13:51:12.961Z,39.37
2022-07-28T13:52:29.338Z,39.06
2022-07-28T13:53:40.482Z,38.57
2022-07-28T13:54:44.422Z,39.01
2022-07-28T13:55:48.376Z,38.91
2022-07-28T13:57:11.175Z,39.07
2022-07-28T13:58:15.627Z,38.93
2022-07-28T13:59:20.237Z,39.00
2022-07-28T14:00:24.709Z,39.31
2022-07-28T14:01:29.218Z,39.13
2022-07-28T14:02:34.022Z,39.20
2022-07-28T14:03:55.567Z,38.69
2022-07-28T14:05:01.864Z,38.47
2022-07-28T14:06:05.932Z,38.57
2022-07-28T14:07:09.804Z,38.50
2022-07-28T14:08:18.884Z,38.42
2022-07-28T14:09:23.284Z,37.89
2022-07-28T14:10:27.766Z,38.15
2022-07-28T14:11:36.372Z,38.06
2022-07-28T14:12:40.469Z,37.90
2022-07-28T14:13:44.324Z,38.31
2022-07-28T14:14:48.929Z,37.79
2022-07-28T14:16:02.682Z,37.92
2022-07-28T14:17:40.167Z,37.98
2022-07-28T14:18:35.507Z,37.53
2022-07-28T14:19:39.881Z,38.17
2022-07-28T14:20:44.023Z,38.18
2022-07-28T14:21:47.918Z,38.60
2022-07-28T14:22:51.814Z,38.84
2022-07-28T14:23:56.352Z,38.63
2022-07-28T14:25:00.442Z,38.86
2022-07-28T14:26:33.415Z,38.91
2022-07-28T14:27:29.438Z,39.32
2022-07-28T14:28:33.303Z,39.59
2022-07-28T14:29:37.587Z,39.32
2022-07-28T14:30:41.656Z,39.49
2022-07-28T14:31:45.646Z,39.72
2022-07-28T14:32:49.799Z,39.65
2022-07-28T14:33:54.870Z,40.12
2022-07-28T14:34:58.952Z,39.96
2022-07-28T14:36:03.973Z,39.80
2022-07-28T14:37:09.288Z,40.02
2022-07-28T14:38:51.651Z,39.55
2022-07-28T14:39:38.612Z,39.88
2022-07-28T14:40:43.043Z,40.02
2022-07-28T14:41:46.979Z,39.91
2022-07-28T14:42:54.294Z,39.94
2022-07-28T14:43:59.252Z,39.94